createdAt,value
2017-08-01T05:31:33.225Z,20.77
2017-08-01T05:31:58.653Z,20.8
2017-08-01T05:32:24.133Z,20.78
2017-08-01T05:32:49.600Z,20.82
2017-08-01T05:33:15.047Z,20.82
2017-08-01T05:33:40.522Z,20.8
2017-08-01T05:34:05.975Z,20.87
2017-08-01T05:34:31.467Z,20.92
2017-08-01T05:34:56.914Z,20.81
2017-08-01T05:35:22.340Z,20.85
2017-08-01T05:35:47.811Z,20.77
2017-08-01T05:36:13.263Z,20.85
2017-08-01T05:36:38.730Z,20.77
2017-08-01T05:37:04.225Z,20.8
2017-08-01T05:37:29.652Z,20.75
2017-08-01T05:37:55.123Z,20.82
2017-08-01T05:38:20.600Z,20.74
2017-08-01T05:38:46.077Z,20.78
2017-08-01T05:39:11.517Z,20.84
2017-08-01T05:39:36.935Z,20.78
2017-08-01T05:40:02.428Z,20.78
2017-08-01T05:40:27.904Z,20.82
2017-08-01T05:40:53.354Z,20.84
2017-08-01T05:41:18.800Z,20.85
2017-08-01T05:41:44.258Z,20.81
2017-08-01T05:42:09.717Z,20.8
2017-08-01T05:42:35.159Z,20.8
2017-08-01T05:43:00.645Z,20.78
2017-08-01T05:43:26.068Z,20.81
2017-08-01T05:43:51.542Z,20.78
2017-08-01T05:44:17.002Z,20.84
2017-08-01T05:44:42.475Z,20.84
2017-08-01T05:45:07.902Z,20.92
2017-08-01T05:45:33.381Z,20.82
2017-08-01T05:45:58.849Z,20.9
2017-08-01T05:46:24.309Z,20.8
2017-08-01T05:46:49.803Z,20.81
2017-08-01T05:47:15.236Z,20.81
2017-08-01T05:47:40.743Z,20.87
2017-08-01T05:48:06.155Z,20.84
2017-08-01T05:48:31.637Z,20.85
2017-08-01T05:48:57.057Z,20.81
2017-08-01T05:49:22.564Z,20.82
2017-08-01T05:49:47.963Z,20.78
2017-08-01T05:50:13.462Z,20.9
2017-08-01T05:50:38.874Z,20.85
2017-08-01T05:51:04.334Z,20.95
2017-08-01T05:51:29.797Z,20.92
2017-08-01T05:51:55.271Z,20.95
2017-08-01T05:52:20.730Z,20.88
2017-08-01T05:52:46.175Z,20.99
2017-08-01T05:53:11.639Z,20.87
2017-08-01T05:53:37.109Z,21.02
2017-08-01T05:54:02.558Z,20.93
2017-08-01T05:54:28.022Z,20.92
2017-08-01T05:54:53.514Z,20.96
2017-08-01T05:55:18.990Z,20.88
2017-08-01T05:55:44.420Z,20.97
2017-08-01T05:56:09.917Z,20.99
2017-08-01T05:56:35.364Z,20.99
2017-08-01T05:57:00.840Z,20.96
2017-08-01T05:57:26.280Z,21
2017-08-01T05:57:51.768Z,20.97
2017-08-01T05:58:17.174Z,20.97
2017-08-01T05:58:42.617Z,21
2017-08-01T05:59:08.054Z,21
2017-08-01T05:59:33.486Z,21.05
2017-08-01T05:59:58.973Z,21.03
2017-08-01T06:00:24.446Z,21.17
2017-08-01T06:00:49.924Z,21.17
2017-08-01T06:01:15.327Z,21.15
2017-08-01T06:01:40.812Z,21.15
2017-08-01T06:02:06.277Z,21.15
2017-08-01T06:02:31.741Z,21.15
2017-08-01T06:02:57.208Z,21.15
2017-08-01T06:03:22.656Z,21.17
2017-08-01T06:03:48.162Z,21.18
2017-08-01T06:04:13.620Z,21.17
2017-08-01T06:04:39.065Z,21.15
2017-08-01T06:05:04.535Z,21.29
2017-08-01T06:05:30.040Z,21.18
2017-08-01T06:05:55.486Z,21.27
2017-08-01T06:06:20.922Z,21.15
2017-08-01T06:06:46.350Z,21.17
2017-08-01T06:07:11.849Z,21.21
2017-08-01T06:07:37.300Z,21.22
2017-08-01T06:08:02.757Z,21.18
2017-08-01T06:08:28.212Z,21.22
2017-08-01T06:08:53.673Z,21.27
2017-08-01T06:09:19.129Z,21.22
2017-08-01T06:09:44.581Z,21.32
2017-08-01T06:10:10.028Z,21.3
2017-08-01T06:10:35.499Z,21.24
2017-08-01T06:11:01.004Z,21.24
2017-08-01T06:11:26.485Z,21.27
2017-08-01T06:11:51.916Z,21.2
2017-08-01T06:12:17.384Z,21.27
2017-08-01T06:12:42.864Z,21.25
2017-08-01T06:13:08.316Z,21.22
2017-08-01T06:13:33.727Z,21.24
2017-08-01T06:13:59.209Z,21.21
2017-08-01T06:14:24.700Z,21.2
2017-08-01T06:14:50.171Z,21.27
2017-08-01T06:15:15.636Z,21.21
2017-08-01T06:15:41.096Z,21.3
2017-08-01T06:16:06.541Z,21.24
2017-08-01T06:16:32.036Z,21.24
2017-08-01T06:16:57.479Z,21.33
2017-08-01T06:17:22.931Z,21.35
2017-08-01T06:17:48.411Z,21.4
2017-08-01T06:18:13.834Z,21.45
2017-08-01T06:18:39.305Z,21.39
2017-08-01T06:19:04.732Z,21.55
2017-08-01T06:19:30.244Z,21.48
2017-08-01T06:19:55.711Z,21.51
2017-08-01T06:20:21.171Z,21.66
2017-08-01T06:20:46.598Z,21.69
2017-08-01T06:21:12.056Z,21.7
2017-08-01T06:21:37.538Z,21.79
2017-08-01T06:22:03.000Z,21.82
2017-08-01T06:22:28.487Z,21.83
2017-08-01T06:22:53.928Z,21.95
2017-08-01T06:23:19.380Z,21.95
2017-08-01T06:23:44.856Z,21.92
2017-08-01T06:24:10.290Z,22.02
2017-08-01T06:24:35.778Z,21.91
2017-08-01T06:25:01.257Z,21.96
2017-08-01T06:25:26.687Z,22.08
2017-08-01T06:25:52.158Z,21.99
2017-08-01T06:26:17.653Z,22.02
2017-08-01T06:26:43.044Z,22
2017-08-01T06:27:08.511Z,22.08
2017-08-01T06:27:33.956Z,22.06
2017-08-01T06:27:59.404Z,22.04
2017-08-01T06:28:24.998Z,21.98
2017-08-01T06:28:50.428Z,21.96
2017-08-01T06:29:15.924Z,21.92
2017-08-01T06:29:41.390Z,21.89
2017-08-01T06:30:06.902Z,21.85
2017-08-01T06:30:32.351Z,21.95
2017-08-01T06:30:57.778Z,21.95
2017-08-01T06:31:23.293Z,21.99
2017-08-01T06:31:48.738Z,22
2017-08-01T06:32:14.222Z,22.02
2017-08-01T06:32:39.666Z,21.99
2017-08-01T06:33:05.130Z,22
2017-08-01T06:33:30.583Z,22.08
2017-08-01T06:33:56.055Z,22.18
2017-08-01T06:34:21.529Z,22.14
2017-08-01T06:34:46.983Z,22.17
2017-08-01T06:35:12.450Z,22.25
2017-08-01T06:35:37.926Z,22.22
2017-08-01T06:36:03.413Z,22.23
2017-08-01T06:36:28.864Z,22.35
2017-08-01T06:36:54.316Z,22.33
2017-08-01T06:37:19.810Z,22.39
2017-08-01T06:37:45.190Z,22.33
2017-08-01T06:38:10.666Z,22.5
2017-08-01T06:38:36.098Z,22.5
2017-08-01T06:39:01.545Z,22.44
2017-08-01T06:39:27.024Z,22.5
2017-08-01T06:39:52.462Z,22.55
2017-08-01T06:40:17.897Z,22.66
2017-08-01T06:40:43.380Z,22.55
2017-08-01T06:41:08.855Z,22.66
2017-08-01T06:41:34.335Z,22.63
2017-08-01T06:41:59.776Z,22.62
2017-08-01T06:42:25.253Z,22.75
2017-08-01T06:42:50.691Z,22.76
2017-08-01T06:43:16.192Z,22.81
2017-08-01T06:43:41.634Z,22.88
2017-08-01T06:44:07.080Z,22.9
2017-08-01T06:44:32.520Z,22.94
2017-08-01T06:44:57.995Z,22.98
2017-08-01T06:45:23.484Z,23
2017-08-01T06:45:48.916Z,23.02
2017-08-01T06:46:14.385Z,22.98
2017-08-01T06:46:39.871Z,23.02
2017-08-01T06:47:05.307Z,22.98
2017-08-01T06:47:30.797Z,22.99
2017-08-01T06:47:56.276Z,22.99
2017-08-01T06:48:21.764Z,23.05
2017-08-01T06:48:47.192Z,23.05
2017-08-01T06:49:12.683Z,23
2017-08-01T06:49:38.146Z,23.03
2017-08-01T06:50:03.629Z,23.13
2017-08-01T06:50:29.146Z,23.08
2017-08-01T06:50:54.580Z,23.15
2017-08-01T06:51:20.031Z,23.15
2017-08-01T06:51:45.496Z,23.13
2017-08-01T06:52:10.972Z,23.17
2017-08-01T06:52:36.431Z,23.18
2017-08-01T06:53:01.879Z,23.17
2017-08-01T06:53:27.353Z,23.21
2017-08-01T06:53:52.816Z,23.2
2017-08-01T06:54:18.260Z,23.18
2017-08-01T06:54:43.716Z,23.21
2017-08-01T06:55:09.148Z,23.25
2017-08-01T06:55:34.602Z,23.23
2017-08-01T06:56:00.105Z,23.23
2017-08-01T06:56:25.517Z,23.32
2017-08-01T06:56:51.019Z,23.36
2017-08-01T06:57:16.473Z,23.18
2017-08-01T06:57:41.917Z,23.39
2017-08-01T06:58:07.401Z,23.31
2017-08-01T06:58:32.836Z,23.32
2017-08-01T06:58:58.305Z,23.21
2017-08-01T06:59:23.759Z,23.31
2017-08-01T06:59:49.220Z,23.31
2017-08-01T07:00:14.691Z,23.28
2017-08-01T07:00:40.152Z,23.31
2017-08-01T07:01:05.614Z,23.31
2017-08-01T07:01:31.053Z,23.31
2017-08-01T07:01:56.551Z,23.28
2017-08-01T07:02:21.973Z,23.31
2017-08-01T07:02:47.444Z,23.23
2017-08-01T07:03:12.984Z,23.27
2017-08-01T07:03:38.379Z,23.31
2017-08-01T07:04:03.844Z,23.34
2017-08-01T07:04:29.327Z,23.39
2017-08-01T07:04:54.833Z,23.36
2017-08-01T07:05:20.277Z,23.41
2017-08-01T07:05:45.736Z,23.46
2017-08-01T07:06:34.078Z,23.54
2017-08-01T07:06:59.552Z,23.59
2017-08-01T07:07:24.988Z,23.58
2017-08-01T07:07:50.462Z,23.61
2017-08-01T07:08:16.014Z,23.68
2017-08-01T07:08:41.486Z,23.71
2017-08-01T07:09:06.929Z,23.73
2017-08-01T07:09:32.443Z,23.87
2017-08-01T07:09:57.913Z,23.88
2017-08-01T07:10:23.373Z,23.93
2017-08-01T07:10:48.859Z,23.92
2017-08-01T07:11:14.410Z,23.99
2017-08-01T07:11:39.893Z,23.99
2017-08-01T07:12:05.386Z,24.03
2017-08-01T07:12:30.878Z,24.06
2017-08-01T07:12:56.342Z,24.11
2017-08-01T07:13:21.843Z,24.05
2017-08-01T07:13:47.327Z,24.17
2017-08-01T07:14:12.824Z,24.13
2017-08-01T07:14:38.320Z,24.18
2017-08-01T07:15:03.802Z,24.2
2017-08-01T07:15:29.272Z,24.17
2017-08-01T07:15:54.722Z,24.17
2017-08-01T07:16:20.206Z,24.2
2017-08-01T07:16:45.690Z,24.28
2017-08-01T07:17:11.125Z,24.2
2017-08-01T07:17:36.613Z,24.23
2017-08-01T07:18:02.064Z,24.32
2017-08-01T07:18:27.560Z,24.28
2017-08-01T07:18:53.049Z,24.26
2017-08-01T07:19:18.551Z,24.3
2017-08-01T07:19:44.031Z,24.35
2017-08-01T07:20:09.540Z,24.29
2017-08-01T07:20:35.017Z,24.28
2017-08-01T07:21:00.483Z,24.3
2017-08-01T07:21:25.983Z,24.28
2017-08-01T07:21:51.489Z,24.29
2017-08-01T07:22:16.958Z,24.29
2017-08-01T07:22:42.435Z,24.38
2017-08-01T07:23:07.920Z,24.33
2017-08-01T07:23:33.378Z,24.32
2017-08-01T07:23:58.894Z,24.43
2017-08-01T07:24:24.347Z,24.39
2017-08-01T07:24:49.843Z,24.38
2017-08-01T07:25:15.356Z,24.36
2017-08-01T07:25:40.856Z,24.38
2017-08-01T07:26:06.354Z,24.39
2017-08-01T07:26:31.836Z,24.51
2017-08-01T07:26:57.338Z,24.5
2017-08-01T07:27:22.810Z,24.53
2017-08-01T07:27:48.282Z,24.61
2017-08-01T07:28:13.784Z,24.58
2017-08-01T07:28:39.273Z,24.57
2017-08-01T07:29:04.755Z,24.68
2017-08-01T07:29:30.256Z,24.65
2017-08-01T07:29:55.729Z,24.69
2017-08-01T07:30:21.223Z,24.77
2017-08-01T07:30:46.674Z,24.77
2017-08-01T07:31:12.222Z,24.69
2017-08-01T07:31:37.729Z,24.85
2017-08-01T07:32:03.213Z,24.76
2017-08-01T07:32:28.664Z,24.76
2017-08-01T07:32:54.135Z,24.78
2017-08-01T07:33:19.613Z,24.86
2017-08-01T07:33:45.078Z,24.91
2017-08-01T07:34:10.546Z,24.95
2017-08-01T07:34:36.004Z,24.95
2017-08-01T07:35:01.496Z,25.01
2017-08-01T07:35:26.985Z,24.93
2017-08-01T07:35:52.445Z,25.06
2017-08-01T07:36:17.938Z,24.96
2017-08-01T07:36:43.431Z,24.99
2017-08-01T07:37:08.921Z,25.08
2017-08-01T07:37:34.434Z,25.07
2017-08-01T07:37:59.960Z,25.11
2017-08-01T07:38:25.406Z,25.13
2017-08-01T07:38:50.875Z,25.07
2017-08-01T07:39:16.400Z,25.13
2017-08-01T07:39:41.856Z,25.11
2017-08-01T07:40:07.297Z,25.16
2017-08-01T07:40:32.845Z,25.22
2017-08-01T07:40:58.329Z,25.28
2017-08-01T07:41:23.784Z,25.29
2017-08-01T07:41:49.266Z,25.23
2017-08-01T07:42:37.786Z,25.29
2017-08-01T07:43:03.298Z,25.26
2017-08-01T07:43:28.787Z,25.28
2017-08-01T07:43:54.264Z,25.22
2017-08-01T07:44:19.765Z,25.29
2017-08-01T07:44:45.251Z,25.36
2017-08-01T07:45:10.760Z,25.28
2017-08-01T07:45:36.247Z,25.31
2017-08-01T07:46:01.698Z,25.28
2017-08-01T07:46:27.183Z,25.28
2017-08-01T07:46:52.673Z,25.29
2017-08-01T07:47:18.134Z,25.35
2017-08-01T07:47:43.608Z,25.35
2017-08-01T07:48:09.112Z,25.21
2017-08-01T07:48:34.586Z,25.26
2017-08-01T07:49:00.079Z,25.28
2017-08-01T07:49:25.569Z,25.25
2017-08-01T07:49:51.059Z,25.17
2017-08-01T07:50:16.548Z,25.21
2017-08-01T07:50:42.029Z,25.16
2017-08-01T07:51:07.494Z,25.08
2017-08-01T07:51:32.964Z,25.07
2017-08-01T07:51:58.440Z,25.11
2017-08-01T07:52:23.875Z,25.08
2017-08-01T07:52:49.367Z,24.99
2017-08-01T07:53:14.819Z,24.98
2017-08-01T07:53:40.314Z,24.91
2017-08-01T07:54:05.793Z,24.99
2017-08-01T07:54:31.318Z,24.92
2017-08-01T07:54:56.829Z,25.01
2017-08-01T07:55:22.247Z,24.96
2017-08-01T07:55:47.717Z,24.98
2017-08-01T07:56:13.237Z,24.99
2017-08-01T07:56:38.714Z,24.99
2017-08-01T07:57:04.202Z,25.14
2017-08-01T07:57:29.723Z,25.08
2017-08-01T07:57:55.243Z,25.17
2017-08-01T07:58:20.720Z,25.17
2017-08-01T07:58:46.203Z,25.26
2017-08-01T07:59:11.665Z,25.31
2017-08-01T07:59:37.174Z,25.32
2017-08-01T08:00:02.669Z,25.29
2017-08-01T08:00:28.152Z,25.35
2017-08-01T08:00:53.606Z,25.33
2017-08-01T08:01:19.042Z,25.35
2017-08-01T08:01:44.507Z,25.38
2017-08-01T08:02:09.973Z,25.48
2017-08-01T08:02:35.474Z,25.5
2017-08-01T08:03:00.961Z,25.41
2017-08-01T08:03:26.463Z,25.48
2017-08-01T08:03:51.956Z,25.44
2017-08-01T08:04:17.443Z,25.46
2017-08-01T08:04:42.944Z,25.48
2017-08-01T08:05:08.450Z,25.48
2017-08-01T08:05:33.927Z,25.51
2017-08-01T08:05:59.383Z,25.46
2017-08-01T08:06:24.856Z,25.55
2017-08-01T08:06:50.348Z,25.48
2017-08-01T08:07:15.861Z,25.55
2017-08-01T08:07:41.342Z,25.46
2017-08-01T08:08:06.876Z,25.55
2017-08-01T08:08:32.341Z,25.48
2017-08-01T08:08:57.817Z,25.54
2017-08-01T08:09:23.256Z,25.46
2017-08-01T08:09:48.733Z,25.46
2017-08-01T08:10:14.181Z,25.33
2017-08-01T08:10:39.659Z,25.43
2017-08-01T08:11:05.113Z,25.43
2017-08-01T08:11:30.592Z,25.38
2017-08-01T08:11:56.016Z,25.35
2017-08-01T08:12:21.489Z,25.31
2017-08-01T08:12:46.915Z,25.32
2017-08-01T08:13:12.390Z,25.29
2017-08-01T08:13:37.834Z,25.31
2017-08-01T08:14:03.373Z,25.28
2017-08-01T08:14:28.799Z,25.26
2017-08-01T08:14:54.273Z,25.25
2017-08-01T08:15:19.689Z,25.26
2017-08-01T08:15:45.155Z,25.28
2017-08-01T08:16:10.673Z,25.31
2017-08-01T08:16:36.111Z,25.28
2017-08-01T08:17:01.571Z,25.32
2017-08-01T08:17:27.034Z,25.35
2017-08-01T08:17:52.573Z,25.4
2017-08-01T08:18:17.978Z,25.33
2017-08-01T08:18:43.554Z,25.32
2017-08-01T08:19:09.046Z,25.31
2017-08-01T08:19:34.527Z,25.38
2017-08-01T08:20:00.005Z,25.32
2017-08-01T08:20:25.474Z,25.33
2017-08-01T08:20:50.939Z,25.36
2017-08-01T08:21:16.387Z,25.29
2017-08-01T08:21:41.875Z,25.31
2017-08-01T08:22:07.327Z,25.32
2017-08-01T08:22:32.844Z,25.28
2017-08-01T08:22:58.311Z,25.33
2017-08-01T08:23:23.808Z,25.28
2017-08-01T08:23:49.255Z,25.28
2017-08-01T08:24:14.765Z,25.36
2017-08-01T08:24:40.234Z,25.25
2017-08-01T08:25:05.630Z,25.29
2017-08-01T08:25:31.093Z,25.22
2017-08-01T08:25:56.528Z,25.25
2017-08-01T08:26:22.034Z,25.33
2017-08-01T08:26:47.515Z,25.26
2017-08-01T08:27:13.051Z,25.35
2017-08-01T08:27:38.531Z,25.29
2017-08-01T08:28:03.947Z,25.28
2017-08-01T08:28:29.420Z,25.28
2017-08-01T08:28:54.914Z,25.28
2017-08-01T08:29:20.392Z,25.25
2017-08-01T08:29:45.802Z,25.25
2017-08-01T08:30:11.278Z,25.29
2017-08-01T08:30:36.725Z,25.29
2017-08-01T08:31:02.297Z,25.26
2017-08-01T08:31:27.883Z,25.25
2017-08-01T08:31:53.409Z,25.22
2017-08-01T08:32:18.810Z,25.26
2017-08-01T08:32:44.277Z,25.29
2017-08-01T08:33:09.884Z,25.26
2017-08-01T08:33:35.597Z,25.28
2017-08-01T08:34:01.113Z,25.26
2017-08-01T08:34:26.676Z,25.26
2017-08-01T08:34:52.075Z,25.32
2017-08-01T08:35:17.673Z,25.26
2017-08-01T08:35:43.112Z,25.25
2017-08-01T08:36:08.612Z,25.31
2017-08-01T08:36:34.040Z,25.25
2017-08-01T08:36:59.735Z,25.21
2017-08-01T08:37:25.047Z,25.23
2017-08-01T08:37:50.519Z,25.23
2017-08-01T08:38:15.977Z,25.25
2017-08-01T08:38:41.452Z,25.29
2017-08-01T08:39:06.997Z,25.29
2017-08-01T08:39:32.403Z,25.23
2017-08-01T08:39:57.818Z,25.29
2017-08-01T08:40:23.264Z,25.28
2017-08-01T08:40:48.717Z,25.25
2017-08-01T08:41:14.204Z,25.28
2017-08-01T08:41:39.636Z,25.31
2017-08-01T08:42:05.094Z,25.21
2017-08-01T08:42:30.556Z,25.23
2017-08-01T08:42:55.998Z,25.33
2017-08-01T08:43:21.414Z,25.4
2017-08-01T08:43:46.901Z,25.36
2017-08-01T08:44:12.415Z,25.36
2017-08-01T08:44:37.869Z,25.48
2017-08-01T08:45:03.367Z,25.47
2017-08-01T08:45:28.784Z,25.5
2017-08-01T08:45:54.219Z,25.44
2017-08-01T08:46:19.653Z,25.58
2017-08-01T08:46:45.127Z,25.48
2017-08-01T08:47:10.639Z,25.46
2017-08-01T08:47:36.161Z,25.59
2017-08-01T08:48:01.602Z,25.6
2017-08-01T08:48:27.086Z,25.66
2017-08-01T08:48:52.646Z,25.65
2017-08-01T08:49:18.178Z,25.7
2017-08-01T08:49:43.684Z,25.63
2017-08-01T08:50:09.118Z,25.66
2017-08-01T08:50:34.642Z,25.65
2017-08-01T08:51:00.127Z,25.7
2017-08-01T08:51:25.555Z,25.63
2017-08-01T08:51:51.034Z,25.66
2017-08-01T08:52:16.529Z,25.7
2017-08-01T08:52:42.047Z,25.72
2017-08-01T08:53:07.469Z,25.7
2017-08-01T08:53:32.901Z,25.72
2017-08-01T08:54:21.377Z,25.7
2017-08-01T08:54:46.773Z,25.72
2017-08-01T08:55:12.179Z,25.69
2017-08-01T08:55:37.636Z,25.65
2017-08-01T08:56:03.077Z,25.6
2017-08-01T08:56:28.541Z,25.69
2017-08-01T08:56:53.969Z,25.6
2017-08-01T08:57:19.456Z,25.6
2017-08-01T08:57:44.943Z,25.63
2017-08-01T08:58:10.366Z,25.62
2017-08-01T08:58:35.911Z,25.59
2017-08-01T08:59:01.367Z,25.65
2017-08-01T08:59:26.836Z,25.73
2017-08-01T08:59:52.276Z,25.68
2017-08-01T09:00:17.739Z,25.69
2017-08-01T09:00:43.249Z,25.66
2017-08-01T09:01:08.721Z,25.66
2017-08-01T09:01:34.151Z,25.68
2017-08-01T09:01:59.628Z,25.69
2017-08-01T09:02:25.122Z,25.66
2017-08-01T09:02:50.565Z,25.72
2017-08-01T09:03:16.035Z,25.62
2017-08-01T09:03:41.496Z,25.63
2017-08-01T09:04:07.011Z,25.72
2017-08-01T09:04:32.463Z,25.73
2017-08-01T09:04:57.992Z,25.77
2017-08-01T09:05:23.356Z,25.8
2017-08-01T09:05:48.875Z,25.77
2017-08-01T09:06:14.283Z,25.77
2017-08-01T09:06:39.721Z,25.87
2017-08-01T09:07:05.243Z,25.88
2017-08-01T09:07:30.683Z,25.91
2017-08-01T09:07:56.096Z,25.93
2017-08-01T09:08:21.614Z,25.88
2017-08-01T09:08:47.112Z,25.93
2017-08-01T09:09:12.564Z,25.88
2017-08-01T09:09:38.061Z,25.85
2017-08-01T09:10:03.580Z,25.95
2017-08-01T09:10:29.047Z,26
2017-08-01T09:10:54.510Z,26.02
2017-08-01T09:11:20.022Z,26.05
2017-08-01T09:11:45.509Z,25.9
2017-08-01T09:12:10.978Z,26.05
2017-08-01T09:12:36.497Z,26.03
2017-08-01T09:13:02.027Z,26.03
2017-08-01T09:13:27.568Z,26.06
2017-08-01T09:13:52.989Z,26.1
2017-08-01T09:14:18.453Z,26.15
2017-08-01T09:14:43.980Z,26.16
2017-08-01T09:15:09.367Z,26.16
2017-08-01T09:15:34.828Z,26.19
2017-08-01T09:16:00.288Z,26.1
2017-08-01T09:16:25.784Z,26.16
2017-08-01T09:16:51.308Z,26.18
2017-08-01T09:17:16.741Z,26.18
2017-08-01T09:17:42.193Z,26.19
2017-08-01T09:18:07.643Z,26.1
2017-08-01T09:18:33.146Z,26.15
2017-08-01T09:18:58.608Z,26.16
2017-08-01T09:19:24.078Z,26.19
2017-08-01T09:19:49.556Z,26.18
2017-08-01T09:20:15.078Z,26.19
2017-08-01T09:20:40.579Z,26.21
2017-08-01T09:21:06.052Z,26.15
2017-08-01T09:21:31.507Z,26.05
2017-08-01T09:21:56.968Z,26
2017-08-01T09:22:22.468Z,26.02
2017-08-01T09:22:48.050Z,26.06
2017-08-01T09:23:13.502Z,26.02
2017-08-01T09:23:38.967Z,25.98
2017-08-01T09:24:04.446Z,25.96
2017-08-01T09:24:29.934Z,25.95
2017-08-01T09:24:55.389Z,25.98
2017-08-01T09:25:20.837Z,25.9
2017-08-01T09:25:46.338Z,25.95
2017-08-01T09:26:11.804Z,25.88
2017-08-01T09:26:37.263Z,25.83
2017-08-01T09:27:02.730Z,25.85
2017-08-01T09:27:28.228Z,25.84
2017-08-01T09:27:53.709Z,25.78
2017-08-01T09:28:19.239Z,25.77
2017-08-01T09:28:44.718Z,25.8
2017-08-01T09:29:10.249Z,25.78
2017-08-01T09:29:35.716Z,25.8
2017-08-01T09:30:01.213Z,25.77
2017-08-01T09:30:26.670Z,25.73
2017-08-01T09:30:52.179Z,25.8
2017-08-01T09:31:17.658Z,25.77
2017-08-01T09:31:43.108Z,25.73
2017-08-01T09:32:08.622Z,25.8
2017-08-01T09:32:34.036Z,25.8
2017-08-01T09:32:59.539Z,25.78
2017-08-01T09:33:25.022Z,25.77
2017-08-01T09:33:50.510Z,25.72
2017-08-01T09:34:15.974Z,25.7
2017-08-01T09:34:41.463Z,25.75
2017-08-01T09:35:06.916Z,25.77
2017-08-01T09:35:32.369Z,25.73
2017-08-01T09:35:57.876Z,25.7
2017-08-01T09:36:23.345Z,25.72
2017-08-01T09:36:48.811Z,25.73
2017-08-01T09:37:14.285Z,25.7
2017-08-01T09:37:39.783Z,25.66
2017-08-01T09:38:05.261Z,25.69
2017-08-01T09:38:30.736Z,25.68
2017-08-01T09:38:56.251Z,25.69
2017-08-01T09:39:21.701Z,25.72
2017-08-01T09:39:47.155Z,25.62
2017-08-01T09:40:12.644Z,25.68
2017-08-01T09:40:38.138Z,25.66
2017-08-01T09:41:03.562Z,25.69
2017-08-01T09:41:29.053Z,25.62
2017-08-01T09:41:54.535Z,25.59
2017-08-01T09:42:19.978Z,25.58
2017-08-01T09:42:45.463Z,25.6
2017-08-01T09:43:10.945Z,25.6
2017-08-01T09:43:36.430Z,25.46
2017-08-01T09:44:01.884Z,25.47
2017-08-01T09:44:27.356Z,25.46
2017-08-01T09:44:52.814Z,25.43
2017-08-01T09:45:18.296Z,25.33
2017-08-01T09:45:43.747Z,25.32
2017-08-01T09:46:09.214Z,25.35
2017-08-01T09:46:34.749Z,25.25
2017-08-01T09:47:00.238Z,25.26
2017-08-01T09:47:25.701Z,25.23
2017-08-01T09:47:51.196Z,25.22
2017-08-01T09:48:16.878Z,25.17
2017-08-01T09:48:42.398Z,25.13
2017-08-01T09:49:07.841Z,25.1
2017-08-01T09:49:33.320Z,25.06
2017-08-01T09:49:58.771Z,24.98
2017-08-01T09:50:24.395Z,24.99
2017-08-01T09:50:49.744Z,24.91
2017-08-01T09:51:15.202Z,24.98
2017-08-01T09:51:40.720Z,24.88
2017-08-01T09:52:06.154Z,24.84
2017-08-01T09:52:31.675Z,24.84
2017-08-01T09:52:57.239Z,24.77
2017-08-01T09:53:22.720Z,24.81
2017-08-01T09:53:48.172Z,24.8
2017-08-01T09:54:13.570Z,24.73
2017-08-01T09:54:39.041Z,24.76
2017-08-01T09:55:04.579Z,24.81
2017-08-01T09:55:30.007Z,24.74
2017-08-01T09:55:55.443Z,24.8
2017-08-01T09:56:20.926Z,24.8
2017-08-01T09:56:46.441Z,24.77
2017-08-01T09:57:11.898Z,24.76
2017-08-01T09:57:37.429Z,24.84
2017-08-01T09:58:02.918Z,24.91
2017-08-01T09:58:28.362Z,24.81
2017-08-01T09:58:53.851Z,24.8
2017-08-01T09:59:19.368Z,24.81
2017-08-01T09:59:44.857Z,24.73
2017-08-01T10:00:10.320Z,24.84
2017-08-01T10:00:35.803Z,24.69
2017-08-01T10:01:01.323Z,24.8
2017-08-01T10:01:26.797Z,24.81
2017-08-01T10:01:52.291Z,24.77
2017-08-01T10:02:17.737Z,24.8
2017-08-01T10:02:43.195Z,24.8
2017-08-01T10:03:08.699Z,24.89
2017-08-01T10:03:34.177Z,24.77
2017-08-01T10:03:59.686Z,24.92
2017-08-01T10:04:25.199Z,24.89
2017-08-01T10:04:50.665Z,24.99
2017-08-01T10:05:16.130Z,24.95
2017-08-01T10:05:41.585Z,24.99
2017-08-01T10:06:07.053Z,25.04
2017-08-01T10:06:32.543Z,25.08
2017-08-01T10:06:58.053Z,25.08
2017-08-01T10:07:23.516Z,25.14
2017-08-01T10:07:48.990Z,25.16
2017-08-01T10:08:14.402Z,25.23
2017-08-01T10:08:39.847Z,25.23
2017-08-01T10:09:05.369Z,25.29
2017-08-01T10:09:30.772Z,25.28
2017-08-01T10:09:56.263Z,25.26
2017-08-01T10:10:21.888Z,25.32
2017-08-01T10:10:47.315Z,25.32
2017-08-01T10:11:12.830Z,25.35
2017-08-01T10:11:38.348Z,25.36
2017-08-01T10:12:03.844Z,25.29
2017-08-01T10:12:29.289Z,25.32
2017-08-01T10:12:54.770Z,25.31
2017-08-01T10:13:20.202Z,25.32
2017-08-01T10:13:45.728Z,25.33
2017-08-01T10:14:11.175Z,25.32
2017-08-01T10:14:36.648Z,25.36
2017-08-01T10:15:02.182Z,25.38
2017-08-01T10:15:27.674Z,25.32
2017-08-01T10:15:53.135Z,25.4
2017-08-01T10:16:18.605Z,25.32
2017-08-01T10:16:44.223Z,25.21
2017-08-01T10:17:09.542Z,25.28
2017-08-01T10:17:35.027Z,25.26
2017-08-01T10:18:00.460Z,25.26
2017-08-01T10:18:25.942Z,25.25
2017-08-01T10:18:51.402Z,25.22
2017-08-01T10:19:16.913Z,25.18
2017-08-01T10:19:42.339Z,25.23
2017-08-01T10:20:07.781Z,25.16
2017-08-01T10:20:33.247Z,25.23
2017-08-01T10:20:58.726Z,25.13
2017-08-01T10:21:24.113Z,25.14
2017-08-01T10:21:49.630Z,25.11
2017-08-01T10:22:15.111Z,25.18
2017-08-01T10:22:40.544Z,25.17
2017-08-01T10:23:06.002Z,25.07
2017-08-01T10:23:31.489Z,25.11
2017-08-01T10:23:56.900Z,25.08
2017-08-01T10:24:22.481Z,25.08
2017-08-01T10:24:47.941Z,25.17
2017-08-01T10:25:13.389Z,25.17
2017-08-01T10:25:38.859Z,25.11
2017-08-01T10:26:04.333Z,25.17
2017-08-01T10:26:29.737Z,25.16
2017-08-01T10:26:55.202Z,25.08
2017-08-01T10:27:20.652Z,25.1
2017-08-01T10:27:46.136Z,25.1
2017-08-01T10:28:11.588Z,25.08
2017-08-01T10:28:37.066Z,25.06
2017-08-01T10:29:02.547Z,25.1
2017-08-01T10:29:28.017Z,25.21
2017-08-01T10:29:53.504Z,25.21
2017-08-01T10:30:18.989Z,25.22
2017-08-01T10:30:44.435Z,25.26
2017-08-01T10:31:09.916Z,25.25
2017-08-01T10:31:35.407Z,25.18
2017-08-01T10:32:00.843Z,25.22
2017-08-01T10:32:26.418Z,25.23
2017-08-01T10:32:51.925Z,25.23
2017-08-01T10:33:17.424Z,25.31
2017-08-01T10:33:42.910Z,25.28
2017-08-01T10:34:08.424Z,25.28
2017-08-01T10:34:33.886Z,25.28
2017-08-01T10:34:59.330Z,25.29
2017-08-01T10:35:24.811Z,25.28
2017-08-01T10:35:50.263Z,25.36
2017-08-01T10:36:15.787Z,25.36
2017-08-01T10:36:41.207Z,25.31
2017-08-01T10:37:06.669Z,25.4
2017-08-01T10:37:32.242Z,25.47
2017-08-01T10:37:57.665Z,25.47
2017-08-01T10:38:23.075Z,25.54
2017-08-01T10:38:48.717Z,25.48
2017-08-01T10:39:14.194Z,25.59
2017-08-01T10:39:39.646Z,25.6
2017-08-01T10:40:05.093Z,25.6
2017-08-01T10:40:30.575Z,25.69
2017-08-01T10:40:55.995Z,25.73
2017-08-01T10:41:21.456Z,25.78
2017-08-01T10:41:46.983Z,25.87
2017-08-01T10:42:12.459Z,25.88
2017-08-01T10:42:37.913Z,25.98
2017-08-01T10:43:03.457Z,26
2017-08-01T10:43:28.973Z,26.1
2017-08-01T10:43:54.444Z,26.18
2017-08-01T10:44:19.881Z,26.16
2017-08-01T10:44:45.362Z,26.19
2017-08-01T10:45:10.871Z,26.25
2017-08-01T10:45:36.434Z,26.28
2017-08-01T10:46:01.992Z,26.26
2017-08-01T10:46:27.500Z,26.36
2017-08-01T10:46:52.988Z,26.33
2017-08-01T10:47:18.509Z,26.41
2017-08-01T10:47:43.975Z,26.43
2017-08-01T10:48:09.412Z,26.48
2017-08-01T10:48:34.935Z,26.44
2017-08-01T10:49:00.474Z,26.51
2017-08-01T10:49:25.977Z,26.59
2017-08-01T10:49:51.419Z,26.62
2017-08-01T10:50:16.966Z,26.65
2017-08-01T10:50:42.428Z,26.58
2017-08-01T10:51:07.917Z,26.68
2017-08-01T10:51:33.415Z,26.68
2017-08-01T10:51:58.900Z,26.8
2017-08-01T10:52:24.461Z,26.74
2017-08-01T10:52:49.903Z,26.83
2017-08-01T10:53:15.377Z,26.93
2017-08-01T10:53:40.822Z,26.9
2017-08-01T10:54:06.302Z,26.97
2017-08-01T10:54:31.786Z,27.08
2017-08-01T10:54:57.275Z,27.08
2017-08-01T10:55:22.744Z,27.1
2017-08-01T10:55:48.195Z,27.18
2017-08-01T10:56:13.727Z,27.15
2017-08-01T10:56:39.148Z,27.17
2017-08-01T10:57:04.653Z,27.2
2017-08-01T10:57:30.047Z,27.22
2017-08-01T10:57:55.615Z,27.36
2017-08-01T10:58:21.058Z,27.37
2017-08-01T10:58:46.544Z,27.36
2017-08-01T10:59:11.972Z,27.4
2017-08-01T10:59:37.441Z,27.37
2017-08-01T11:00:02.915Z,27.39
2017-08-01T11:00:28.449Z,27.4
2017-08-01T11:00:53.897Z,27.37
2017-08-01T11:01:19.353Z,27.39
2017-08-01T11:01:44.815Z,27.33
2017-08-01T11:02:10.337Z,27.25